Time;durP1;ratioP1;P1;durP2;ratioP2;P2;SDS_P1;SDS_P2;PMS_P1;PMS_P2;Temp;Humidity;BMP_temperature;BMP_pressure;BME280_temperature;BME280_humidity;BME280_pressure;Samples;Min_cycle;Max_cycle;Signal;HPM_P1;HPM_P2
2023/09/26 00:00:23;;;;;;;4.43;4.03;;;17.60;70.90;;;;;;4992258;28;20184;-81
2023/09/26 00:02:50;;;;;;;5.97;4.15;;;17.60;70.80;;;;;;4993796;28;20054;-83
2023/09/26 00:05:18;;;;;;;5.68;3.97;;;17.70;70.70;;;;;;5002511;28;20029;-81
2023/09/26 00:07:45;;;;;;;7.95;4.35;;;17.60;70.60;;;;;;5011863;28;20034;-82
2023/09/26 00:10:12;;;;;;;6.47;4.05;;;17.60;70.30;;;;;;5012683;28;20491;-85
2023/09/26 00:12:38;;;;;;;6.72;4.53;;;17.60;70.00;;;;;;4995790;28;20041;-87
2023/09/26 00:15:05;;;;;;;6.32;4.68;;;17.60;69.80;;;;;;4995840;28;20053;-88
2023/09/26 00:17:31;;;;;;;7.00;4.50;;;17.60;69.70;;;;;;5000967;28;20044;-88
2023/09/26 00:19:57;;;;;;;5.72;4.38;;;17.50;69.80;;;;;;4981521;28;20049;-90
2023/09/26 00:22:24;;;;;;;6.30;4.43;;;17.50;69.90;;;;;;4998311;28;20069;-92
2023/09/26 00:24:51;;;;;;;7.35;4.75;;;17.50;70.00;;;;;;4997343;28;20033;-90
2023/09/26 00:27:18;;;;;;;6.20;4.22;;;17.50;69.80;;;;;;5001547;28;20053;-89
2023/09/26 00:29:44;;;;;;;5.07;4.22;;;17.50;69.40;;;;;;4979838;28;20065;-88
2023/09/26 00:32:11;;;;;;;5.88;3.95;;;17.50;69.10;;;;;;4999963;28;20038;-83
2023/09/26 00:34:38;;;;;;;6.93;4.03;;;17.40;69.00;;;;;;4981195;28;20053;-88
2023/09/26 00:37:04;;;;;;;9.00;6.07;;;17.40;68.80;;;;;;5012879;28;20038;-86
2023/09/26 00:39:30;;;;;;;10.13;7.63;;;17.40;68.80;;;;;;5010805;28;20042;-82
2023/09/26 00:41:56;;;;;;;7.85;6.50;;;17.30;68.60;;;;;;5010859;28;20507;-84
2023/09/26 00:44:22;;;;;;;12.25;6.05;;;17.30;68.10;;;;;;4993854;28;20064;-82
2023/09/26 00:46:48;;;;;;;6.95;5.40;;;17.30;68.60;;;;;;4993689;28;20090;-85
2023/09/26 00:49:15;;;;;;;7.30;4.68;;;17.20;68.70;;;;;;4993826;28;20037;-85
2023/09/26 00:51:41;;;;;;;7.05;4.53;;;17.20;68.70;;;;;;4995625;28;20038;-86
2023/09/26 00:54:10;;;;;;;5.68;4.40;;;17.20;68.70;;;;;;4994625;28;20038;-86
2023/09/26 00:56:38;;;;;;;5.43;4.05;;;17.10;68.60;;;;;;4991101;28;20558;-86
2023/09/26 00:59:05;;;;;;;6.10;4.18;;;17.10;68.60;;;;;;4987419;28;20097;-84
2023/09/26 01:01:32;;;;;;;6.53;4.60;;;17.10;68.70;;;;;;4990908;28;20045;-85
2023/09/26 01:03:59;;;;;;;5.45;4.72;;;17.10;68.70;;;;;;4994213;28;20033;-85
2023/09/26 01:06:25;;;;;;;5.53;4.20;;;17.00;68.90;;;;;;4988152;28;20070;-84
2023/09/26 01:08:51;;;;;;;5.53;4.00;;;17.00;69.00;;;;;;5008872;28;20524;-84
2023/09/26 01:11:17;;;;;;;4.65;4.10;;;17.00;69.40;;;;;;5011206;28;20637;-85
2023/09/26 01:13:45;;;;;;;6.18;3.95;;;17.00;69.80;;;;;;4994382;28;20113;-86
2023/09/26 01:16:15;;;;;;;4.25;3.85;;;16.90;69.90;;;;;;4997848;28;20044;-85
2023/09/26 01:18:42;;;;;;;5.63;4.10;;;16.90;69.80;;;;;;4990394;28;20030;-82
2023/09/26 01:21:08;;;;;;;5.95;4.22;;;16.90;69.40;;;;;;4990522;28;20320;-83
2023/09/26 01:23:36;;;;;;;6.60;4.30;;;16.80;69.10;;;;;;4988591;28;20045;-82
2023/09/26 01:26:03;;;;;;;5.35;4.00;;;16.90;69.10;;;;;;5005681;28;20133;-81
2023/09/26 01:28:29;;;;;;;5.22;3.97;;;16.80;68.90;;;;;;4991672;28;20026;-82
2023/09/26 01:30:55;;;;;;;4.22;3.70;;;16.80;68.90;;;;;;4994506;28;20022;-82
2023/09/26 01:33:22;;;;;;;6.75;4.15;;;16.80;68.90;;;;;;4976443;28;20034;-82
2023/09/26 01:35:50;;;;;;;4.93;4.10;;;16.80;68.90;;;;;;5009051;28;20057;-83
2023/09/26 01:38:21;;;;;;;6.18;4.15;;;16.70;68.90;;;;;;4992125;28;20030;-81
2023/09/26 01:40:48;;;;;;;6.80;4.35;;;16.70;68.90;;;;;;4989812;28;20051;-84
2023/09/26 01:43:14;;;;;;;4.53;3.88;;;16.70;69.10;;;;;;5002286;28;20045;-84
2023/09/26 01:45:40;;;;;;;5.82;3.85;;;16.70;69.20;;;;;;4989005;28;20055;-91
2023/09/26 01:48:06;;;;;;;6.35;3.80;;;16.70;69.20;;;;;;4988018;28;20042;-91
2023/09/26 01:50:35;;;;;;;7.72;4.07;;;16.60;69.10;;;;;;4988010;28;20039;-88
2023/09/26 01:53:01;;;;;;;5.28;4.20;;;16.60;69.10;;;;;;4988130;28;20081;-90
2023/09/26 01:55:27;;;;;;;4.65;4.05;;;16.60;69.10;;;;;;5010351;28;20030;-88
2023/09/26 01:57:53;;;;;;;6.13;3.97;;;16.60;69.20;;;;;;4958985;28;20050;-87
2023/09/26 02:00:19;;;;;;;5.75;4.28;;;16.60;69.30;;;;;;4994100;28;20046;-87
2023/09/26 02:02:50;;;;;;;6.78;4.20;;;16.50;69.20;;;;;;4995165;28;20042;-85
2023/09/26 02:05:20;;;;;;;5.15;3.70;;;16.50;69.20;;;;;;4988203;28;20034;-84
2023/09/26 02:07:46;;;;;;;6.20;3.85;;;16.50;69.20;;;;;;4985719;28;20058;-83
2023/09/26 02:10:16;;;;;;;5.72;4.25;;;16.50;69.30;;;;;;5002663;28;20030;-83
2023/09/26 02:12:47;;;;;;;5.07;3.90;;;16.50;69.30;;;;;;4971237;28;20042;-82
2023/09/26 02:15:14;;;;;;;7.18;4.10;;;16.40;69.30;;;;;;4988728;28;20034;-83
2023/09/26 02:17:40;;;;;;;5.78;3.95;;;16.40;69.30;;;;;;4985775;28;20038;-83
2023/09/26 02:20:15;;;;;;;4.47;4.07;;;16.40;69.50;;;;;;5002167;28;20046;-81
2023/09/26 02:22:49;;;;;;;6.20;4.30;;;16.30;69.50;;;;;;4986005;28;20116;-82
2023/09/26 02:25:18;;;;;;;7.20;4.78;;;16.30;69.80;;;;;;5001214;28;20373;-82
2023/09/26 02:27:45;;;;;;;7.38;4.07;;;16.30;70.00;;;;;;4986631;28;20038;-87
2023/09/26 02:30:14;;;;;;;7.85;4.40;;;16.30;70.10;;;;;;4969777;28;20038;-85
2023/09/26 02:32:40;;;;;;;6.03;4.28;;;16.30;70.10;;;;;;5002361;28;20030;-85
2023/09/26 02:35:08;;;;;;;6.13;4.32;;;16.30;70.10;;;;;;4986138;28;20046;-82
2023/09/26 02:37:35;;;;;;;6.07;4.30;;;16.30;70.00;;;;;;5004013;28;20085;-92
2023/09/26 02:40:05;;;;;;;6.85;4.30;;;16.30;70.10;;;;;;4973600;28;20062;-94
2023/09/26 02:42:33;;;;;;;6.10;4.63;;;16.30;70.20;;;;;;4984982;28;20033;-91
2023/09/26 02:45:00;;;;;;;7.43;4.25;;;16.30;70.20;;;;;;4990137;28;20075;-88
2023/09/26 02:47:26;;;;;;;5.80;4.47;;;16.20;69.90;;;;;;4985521;28;20046;-88
2023/09/26 02:49:52;;;;;;;4.90;4.13;;;16.20;69.70;;;;;;4986889;28;20252;-89
2023/09/26 02:52:18;;;;;;;5.32;4.00;;;16.20;69.70;;;;;;4988648;28;20031;-85
2023/09/26 02:54:44;;;;;;;5.57;4.50;;;16.20;70.10;;;;;;4988148;28;20041;-86
2023/09/26 02:57:10;;;;;;;7.40;4.95;;;16.20;70.40;;;;;;4986351;28;20038;-87
2023/09/26 02:59:37;;;;;;;6.90;4.82;;;16.20;70.60;;;;;;4985553;28;20076;-79
2023/09/26 03:02:03;;;;;;;6.65;4.70;;;16.20;70.40;;;;;;4999629;28;20125;-78
2023/09/26 03:04:29;;;;;;;6.88;4.90;;;16.10;70.20;;;;;;5000879;28;20035;-78
2023/09/26 03:06:55;;;;;;;6.80;4.68;;;16.10;70.30;;;;;;5004010;28;20037;-82
2023/09/26 03:09:21;;;;;;;6.75;4.57;;;16.10;70.30;;;;;;4988456;28;20034;-85
2023/09/26 03:11:47;;;;;;;7.50;4.85;;;16.10;70.20;;;;;;4974667;28;20038;-87
2023/09/26 03:14:13;;;;;;;6.28;4.93;;;16.10;70.10;;;;;;4989950;28;20030;-86
2023/09/26 03:16:39;;;;;;;7.43;4.97;;;16.10;70.20;;;;;;4973059;28;20035;-85
2023/09/26 03:19:08;;;;;;;6.53;5.07;;;16.10;70.40;;;;;;4988820;28;20034;-83
2023/09/26 03:21:34;;;;;;;9.13;5.60;;;16.00;70.50;;;;;;4988213;28;20041;-82
2023/09/26 03:24:00;;;;;;;8.25;5.63;;;16.10;70.80;;;;;;5005268;28;20026;-79
2023/09/26 03:26:27;;;;;;;8.02;5.68;;;16.10;71.10;;;;;;4987782;28;20038;-78
2023/09/26 03:28:53;;;;;;;10.48;5.85;;;16.10;71.40;;;;;;4990012;28;20046;-85
2023/09/26 03:31:20;;;;;;;10.57;7.10;;;16.00;71.60;;;;;;4988276;28;20124;-85
2023/09/26 03:33:48;;;;;;;9.25;6.97;;;16.10;72.00;;;;;;4972307;28;20145;-83
2023/09/26 03:36:14;;;;;;;14.27;7.60;;;16.00;72.70;;;;;;4989174;28;20034;-83
2023/09/26 03:38:39;;;;;;;11.35;7.45;;;16.10;72.20;;;;;;5005787;28;20563;-83
2023/09/26 03:41:09;;;;;;;13.15;7.60;;;16.10;72.20;;;;;;5003924;28;20934;-83
2023/09/26 03:43:35;;;;;;;10.70;6.75;;;16.10;72.20;;;;;;5005241;28;20034;-89
2023/09/26 03:46:04;;;;;;;12.63;7.03;;;16.10;72.00;;;;;;4976242;28;20042;-89
2023/09/26 03:48:30;;;;;;;12.80;6.40;;;16.20;71.90;;;;;;4975514;28;20034;-88
2023/09/26 03:51:13;;;;;;;11.23;6.53;;;16.20;71.90;;;;;;4991478;28;20046;-86
2023/09/26 03:53:39;;;;;;;13.73;6.05;;;16.20;72.00;;;;;;4990775;28;20050;-87
2023/09/26 03:56:05;;;;;;;8.18;5.95;;;16.20;72.30;;;;;;4986409;28;20120;-82
2023/09/26 03:58:32;;;;;;;9.35;6.80;;;16.20;72.30;;;;;;4986725;28;20088;-83
2023/09/26 04:01:08;;;;;;;9.45;6.05;;;16.20;72.20;;;;;;5002664;28;20501;-83
2023/09/26 04:03:34;;;;;;;10.80;5.80;;;16.20;72.30;;;;;;4968589;28;20057;-81
2023/09/26 04:06:00;;;;;;;8.95;5.63;;;16.20;72.50;;;;;;5002098;28;20564;-80
2023/09/26 04:08:26;;;;;;;7.35;5.50;;;16.30;72.20;;;;;;4986020;28;20125;-80
2023/09/26 04:10:52;;;;;;;7.95;5.38;;;16.30;72.40;;;;;;5003676;28;20058;-80
2023/09/26 04:13:17;;;;;;;9.25;5.57;;;16.30;71.60;;;;;;4987628;28;20608;-81
2023/09/26 04:15:44;;;;;;;11.60;5.72;;;16.30;71.60;;;;;;5001790;28;20177;-80
2023/09/26 04:18:10;;;;;;;7.97;6.00;;;16.30;71.80;;;;;;5002951;28;20053;-80
2023/09/26 04:20:37;;;;;;;9.38;6.50;;;16.30;71.90;;;;;;5003221;28;20530;-79
2023/09/26 04:23:03;;;;;;;13.30;6.55;;;16.40;72.00;;;;;;4987229;28;20221;-80
2023/09/26 04:25:34;;;;;;;9.43;6.75;;;16.40;72.10;;;;;;4984064;28;20036;-82
2023/09/26 04:28:00;;;;;;;9.85;6.07;;;16.40;72.00;;;;;;5002623;28;20042;-82
2023/09/26 04:30:26;;;;;;;8.45;5.85;;;16.40;71.60;;;;;;4986499;28;20042;-79
2023/09/26 04:32:52;;;;;;;10.57;6.53;;;16.40;71.30;;;;;;4987252;28;20035;-78
2023/09/26 04:35:18;;;;;;;8.95;6.50;;;16.40;71.10;;;;;;4987246;28;20084;-79
2023/09/26 04:37:44;;;;;;;8.82;6.65;;;16.40;71.50;;;;;;4987420;28;20032;-78
2023/09/26 04:40:10;;;;;;;9.27;6.47;;;16.50;71.90;;;;;;4988219;28;20034;-78
2023/09/26 04:42:41;;;;;;;9.38;7.05;;;16.40;72.00;;;;;;4987187;28;20034;-78
2023/09/26 04:45:08;;;;;;;10.25;7.20;;;16.40;72.20;;;;;;4985767;28;20125;-78
2023/09/26 04:47:38;;;;;;;12.45;7.22;;;16.50;72.70;;;;;;4985235;28;20038;-79
2023/09/26 04:50:06;;;;;;;10.77;6.88;;;16.60;72.80;;;;;;4984488;28;20604;-77
2023/09/26 04:52:32;;;;;;;13.80;7.50;;;16.60;73.00;;;;;;4985741;28;20125;-78
2023/09/26 04:54:58;;;;;;;10.60;7.45;;;16.60;73.00;;;;;;4985062;28;20042;-79
2023/09/26 04:57:24;;;;;;;10.68;6.78;;;16.70;73.00;;;;;;4999978;28;20049;-85
2023/09/26 04:59:50;;;;;;;11.45;7.20;;;16.70;73.00;;;;;;4989187;28;20034;-89
2023/09/26 05:02:16;;;;;;;10.45;7.20;;;16.70;72.80;;;;;;5003545;28;20050;-93
2023/09/26 05:04:42;;;;;;;11.85;6.95;;;16.70;72.50;;;;;;4960635;28;21365;-90
2023/09/26 05:07:09;;;;;;;13.15;7.53;;;16.70;72.40;;;;;;4975358;28;20084;-90
2023/09/26 05:09:39;;;;;;;12.13;7.35;;;16.70;72.30;;;;;;4992167;28;20038;-89
2023/09/26 05:12:05;;;;;;;35.63;25.58;;;16.70;72.40;;;;;;4987223;28;20125;-89
2023/09/26 05:14:31;;;;;;;36.88;26.38;;;16.70;72.80;;;;;;4987046;28;20046;-88
2023/09/26 05:16:57;;;;;;;35.30;21.83;;;16.70;73.00;;;;;;4990778;28;20038;-88
2023/09/26 05:19:23;;;;;;;24.85;18.25;;;16.80;73.20;;;;;;5010137;28;20038;-90
2023/09/26 05:21:49;;;;;;;21.63;15.65;;;16.90;73.30;;;;;;4988538;28;20027;-91
2023/09/26 05:24:15;;;;;;;20.02;13.30;;;16.90;73.30;;;;;;4988062;28;20034;-88
2023/09/26 05:26:41;;;;;;;18.55;11.48;;;17.00;73.40;;;;;;4988047;28;20038;-91
2023/09/26 05:29:07;;;;;;;13.32;10.02;;;17.00;73.50;;;;;;4989854;28;20042;-90
2023/09/26 05:31:33;;;;;;;15.18;9.43;;;17.10;73.70;;;;;;5005700;28;20027;-90
2023/09/26 05:33:59;;;;;;;14.15;8.85;;;17.20;73.70;;;;;;4993181;28;20030;-87
2023/09/26 05:36:25;;;;;;;16.73;8.90;;;17.40;73.80;;;;;;4991095;28;20453;-88
2023/09/26 05:38:51;;;;;;;11.48;8.02;;;17.50;73.60;;;;;;5004587;28;20030;-89
2023/09/26 05:41:17;;;;;;;10.32;7.95;;;17.70;73.40;;;;;;4991777;28;20049;-88
2023/09/26 05:43:44;;;;;;;11.18;6.93;;;17.90;73.00;;;;;;4987914;28;20030;-80
2023/09/26 05:46:09;;;;;;;10.35;7.25;;;18.00;72.40;;;;;;4994499;28;20105;-85
2023/09/26 05:48:36;;;;;;;10.73;6.53;;;18.20;72.00;;;;;;5022708;28;20038;-96
2023/09/26 05:51:03;;;;;;;8.48;6.30;;;18.30;71.50;;;;;;4988958;28;20035;-90
2023/09/26 05:53:32;;;;;;;8.55;5.85;;;18.50;71.20;;;;;;4988390;28;20034;-90
2023/09/26 05:55:58;;;;;;;8.38;5.72;;;18.80;70.30;;;;;;5004134;28;20080;-86
2023/09/26 05:58:24;;;;;;;8.73;5.68;;;18.80;70.80;;;;;;5004981;28;20530;-87
2023/09/26 06:00:53;;;;;;;9.60;5.60;;;19.00;70.60;;;;;;4970407;28;20225;-87
2023/09/26 06:03:19;;;;;;;6.03;4.60;;;19.10;70.40;;;;;;4986301;28;20035;-85
2023/09/26 06:05:45;;;;;;;7.95;4.72;;;19.40;69.40;;;;;;5004104;28;20031;-90
2023/09/26 06:08:11;;;;;;;7.40;4.40;;;19.40;69.80;;;;;;4987218;28;20385;-90
2023/09/26 06:10:37;;;;;;;6.00;4.13;;;19.60;69.70;;;;;;4970933;28;20045;-87
2023/09/26 06:13:03;;;;;;;5.35;4.28;;;19.80;69.60;;;;;;4954651;28;20042;-92
2023/09/26 06:15:31;;;;;;;5.40;4.40;;;20.00;68.40;;;;;;5001981;28;20509;-87
2023/09/26 06:17:59;;;;;;;5.75;3.85;;;20.00;68.80;;;;;;4985154;28;20042;-88
2023/09/26 06:20:29;;;;;;;4.55;4.10;;;20.20;68.70;;;;;;4985557;28;20210;-88
2023/09/26 06:22:56;;;;;;;4.80;3.45;;;20.30;68.40;;;;;;5000907;28;20517;-85
2023/09/26 06:25:22;;;;;;;4.75;3.72;;;20.40;68.00;;;;;;4985556;28;20034;-84
2023/09/26 06:27:49;;;;;;;4.78;4.13;;;20.50;67.60;;;;;;5002269;28;20038;-85
2023/09/26 06:30:15;;;;;;;4.93;3.72;;;20.70;67.30;;;;;;4986593;28;20034;-87
2023/09/26 06:32:41;;;;;;;4.40;4.00;;;20.80;67.10;;;;;;5004433;28;20036;-85
2023/09/26 06:35:08;;;;;;;4.65;3.55;;;20.90;66.40;;;;;;5006417;28;20509;-86
2023/09/26 06:37:34;;;;;;;4.10;3.53;;;21.10;66.80;;;;;;4988251;28;20109;-87
2023/09/26 06:40:04;;;;;;;3.88;3.22;;;21.20;66.60;;;;;;4970286;28;20045;-86
2023/09/26 06:42:32;;;;;;;3.78;3.28;;;21.30;66.50;;;;;;4988236;28;20065;-85
2023/09/26 06:44:58;;;;;;;4.22;3.13;;;21.40;66.30;;;;;;4990060;28;20034;-84
2023/09/26 06:47:28;;;;;;;4.00;2.78;;;21.50;66.10;;;;;;5005857;28;20034;-86
2023/09/26 06:49:55;;;;;;;5.53;2.65;;;21.60;65.80;;;;;;5006570;28;20030;-85
2023/09/26 06:52:22;;;;;;;4.07;2.85;;;21.70;65.60;;;;;;4990716;28;20077;-90
2023/09/26 06:54:50;;;;;;;2.80;2.40;;;21.90;65.40;;;;;;4991361;28;20038;-89
2023/09/26 06:57:20;;;;;;;3.38;2.00;;;21.90;65.00;;;;;;4991256;28;20058;-85
2023/09/26 06:59:50;;;;;;;3.97;1.92;;;22.10;64.70;;;;;;4989308;28;20034;-84
2023/09/26 07:02:16;;;;;;;5.70;2.30;;;22.20;64.30;;;;;;4989264;28;20089;-88
2023/09/26 07:04:43;;;;;;;3.55;2.20;;;22.30;64.00;;;;;;4989161;28;20027;-86
2023/09/26 07:07:09;;;;;;;2.90;2.20;;;22.40;63.30;;;;;;4990113;28;20028;-88
2023/09/26 07:09:35;;;;;;;2.72;2.03;;;22.50;63.30;;;;;;4990538;28;20125;-86
2023/09/26 07:12:03;;;;;;;3.13;1.95;;;22.60;63.20;;;;;;4990523;28;20946;-87
2023/09/26 07:14:33;;;;;;;5.05;2.53;;;22.60;63.40;;;;;;4990405;28;20096;-90
2023/09/26 07:16:59;;;;;;;5.75;2.50;;;22.70;62.80;;;;;;4987800;28;20062;-86
2023/09/26 07:19:32;;;;;;;2.20;1.98;;;22.80;62.40;;;;;;4977168;28;20038;-87
2023/09/26 07:21:59;;;;;;;2.50;2.10;;;22.90;62.40;;;;;;5005240;28;20893;-86
2023/09/26 07:24:25;;;;;;;4.03;1.85;;;23.00;62.10;;;;;;4989932;28;20045;-82
2023/09/26 07:26:52;;;;;;;2.88;2.58;;;23.00;61.70;;;;;;5003834;28;20378;-81
2023/09/26 07:29:18;;;;;;;3.85;2.90;;;23.10;60.80;;;;;;4989767;28;20042;-81
2023/09/26 07:31:44;;;;;;;3.83;2.70;;;23.20;60.70;;;;;;4988210;28;20030;-86
2023/09/26 07:34:10;;;;;;;4.97;3.20;;;23.30;60.50;;;;;;4989831;28;20030;-82
2023/09/26 07:36:36;;;;;;;5.63;2.72;;;23.40;60.90;;;;;;5004313;28;20181;-83
2023/09/26 07:39:03;;;;;;;4.38;2.70;;;23.50;61.10;;;;;;5004439;28;20121;-78
2023/09/26 07:41:30;;;;;;;5.13;2.63;;;23.60;60.40;;;;;;4989288;28;20159;-83
2023/09/26 07:43:56;;;;;;;3.10;2.80;;;23.70;60.60;;;;;;5004682;28;20034;-82
2023/09/26 07:46:22;;;;;;;3.83;2.45;;;23.70;59.90;;;;;;4989484;28;20038;-79
2023/09/26 07:48:49;;;;;;;2.80;2.47;;;23.80;59.80;;;;;;4988551;28;20127;-83
2023/09/26 07:51:16;;;;;;;5.57;2.20;;;23.80;59.90;;;;;;4986508;28;20038;-81
2023/09/26 07:53:42;;;;;;;5.75;2.25;;;23.90;60.50;;;;;;5002572;28;20399;-81
2023/09/26 07:56:08;;;;;;;5.72;2.30;;;24.00;60.90;;;;;;4988016;28;20030;-82
2023/09/26 07:58:34;;;;;;;3.85;2.25;;;24.00;61.30;;;;;;5004677;28;20061;-81
2023/09/26 08:01:06;;;;;;;2.83;2.00;;;24.00;60.90;;;;;;4986979;28;20501;-82
2023/09/26 08:03:32;;;;;;;3.05;2.13;;;24.00;61.00;;;;;;4987744;28;20121;-82
2023/09/26 08:06:03;;;;;;;3.45;2.40;;;24.00;61.20;;;;;;4988659;28;20049;-81
2023/09/26 08:08:29;;;;;;;3.67;2.58;;;24.10;61.50;;;;;;4987359;28;20050;-81
2023/09/26 08:10:56;;;;;;;3.25;2.60;;;24.10;60.40;;;;;;4987864;28;20125;-81
2023/09/26 08:13:23;;;;;;;3.03;2.25;;;24.10;59.20;;;;;;4991252;28;20038;-88
2023/09/26 08:15:48;;;;;;;4.43;2.33;;;24.00;58.40;;;;;;4993032;28;20042;-78
2023/09/26 08:18:14;;;;;;;2.63;2.13;;;24.00;58.50;;;;;;4993786;28;20045;-78
2023/09/26 08:20:40;;;;;;;4.47;2.22;;;24.00;59.00;;;;;;4995096;28;20220;-78
2023/09/26 08:23:06;;;;;;;3.33;2.58;;;24.00;59.30;;;;;;5002164;28;20050;-79
2023/09/26 08:25:34;;;;;;;2.70;2.00;;;24.00;59.10;;;;;;5004583;28;20034;-79
2023/09/26 08:28:01;;;;;;;3.53;2.00;;;24.00;59.30;;;;;;5012484;28;20033;-80
2023/09/26 08:30:27;;;;;;;4.38;2.30;;;24.00;59.30;;;;;;5003452;28;20034;-79
2023/09/26 08:32:53;;;;;;;3.13;1.90;;;24.10;59.10;;;;;;4990291;28;20030;-78
2023/09/26 08:35:19;;;;;;;3.22;1.98;;;24.10;59.10;;;;;;5002906;28;20034;-79
2023/09/26 08:37:45;;;;;;;3.38;2.00;;;24.00;59.10;;;;;;5001934;28;20117;-79
2023/09/26 08:40:11;;;;;;;3.05;1.90;;;24.00;59.10;;;;;;5003583;28;20445;-79
2023/09/26 08:42:40;;;;;;;3.42;1.98;;;24.00;59.10;;;;;;4987692;28;20038;-79
2023/09/26 08:45:07;;;;;;;3.20;2.05;;;24.00;59.00;;;;;;4987853;28;20481;-79
2023/09/26 08:47:39;;;;;;;5.25;2.15;;;24.00;59.00;;;;;;4987631;28;20076;-80
2023/09/26 08:50:06;;;;;;;2.03;1.90;;;24.00;59.00;;;;;;4987547;28;20042;-81
2023/09/26 08:52:33;;;;;;;3.97;2.00;;;24.00;58.70;;;;;;5002406;28;20069;-81
2023/09/26 08:54:59;;;;;;;2.53;1.70;;;24.00;58.80;;;;;;4987424;28;20042;-80
2023/09/26 08:57:26;;;;;;;1.95;1.60;;;24.00;59.00;;;;;;4985775;28;20126;-80
2023/09/26 08:59:55;;;;;;;1.92;1.70;;;24.00;59.20;;;;;;4987346;28;20125;-81
2023/09/26 09:02:21;;;;;;;3.35;1.55;;;24.00;58.00;;;;;;4986207;28;20046;-81
2023/09/26 09:04:47;;;;;;;2.85;1.85;;;23.90;57.20;;;;;;4987398;28;20551;-79
2023/09/26 09:07:14;;;;;;;4.25;1.92;;;23.80;57.20;;;;;;5002179;28;20069;-84
2023/09/26 09:10:10;;;;;;;6.35;1.80;;;23.80;57.40;;;;;;4986235;28;20121;-85
2023/09/26 09:12:37;;;;;;;1.90;1.75;;;23.80;57.80;;;;;;5002474;28;20049;-86
2023/09/26 09:15:19;;;;;;;3.72;1.95;;;23.70;57.90;;;;;;4985447;28;20038;-84
2023/09/26 09:17:49;;;;;;;2.33;1.98;;;23.70;58.00;;;;;;5002435;28;20500;-85
2023/09/26 09:20:29;;;;;;;2.17;1.73;;;23.70;57.80;;;;;;4970829;28;20553;-84
2023/09/26 09:23:06;;;;;;;3.80;2.53;;;23.70;57.70;;;;;;4985529;28;20046;-86
2023/09/26 09:25:35;;;;;;;3.80;2.72;;;23.70;58.00;;;;;;4987203;28;20026;-88
2023/09/26 09:28:04;;;;;;;3.53;2.35;;;23.70;58.30;;;;;;4985315;28;20436;-85
2023/09/26 09:30:37;;;;;;;2.80;2.00;;;23.70;58.40;;;;;;5002795;28;20120;-84
2023/09/26 09:33:05;;;;;;;2.05;1.85;;;23.70;58.60;;;;;;4986983;28;20049;-87
2023/09/26 09:35:31;;;;;;;2.70;1.70;;;23.70;58.70;;;;;;4987143;28;20046;-89
2023/09/26 09:37:58;;;;;;;1.88;1.50;;;23.70;58.00;;;;;;4987261;28;20221;-89
2023/09/26 09:40:25;;;;;;;1.83;1.40;;;23.70;57.50;;;;;;4979948;28;20054;-88
2023/09/26 09:42:52;;;;;;;2.30;1.48;;;23.70;57.30;;;;;;4973281;28;20084;-88
2023/09/26 09:45:19;;;;;;;2.10;1.60;;;23.70;57.40;;;;;;4988229;28;20046;-89
2023/09/26 09:47:48;;;;;;;1.80;1.60;;;23.70;57.30;;;;;;4989855;28;20038;-89
2023/09/26 09:50:16;;;;;;;3.88;1.65;;;23.60;57.40;;;;;;4987954;28;20121;-87
2023/09/26 09:52:48;;;;;;;1.83;1.55;;;23.60;57.00;;;;;;5000097;28;20065;-83
2023/09/26 09:55:28;;;;;;;2.83;1.80;;;23.60;57.10;;;;;;4987215;28;20394;-84
2023/09/26 09:57:56;;;;;;;2.92;1.65;;;23.60;56.80;;;;;;4984565;28;20041;-88
2023/09/26 10:00:25;;;;;;;2.55;1.70;;;23.60;56.70;;;;;;4986488;28;20711;-92
2023/09/26 10:03:03;;;;;;;3.53;2.25;;;23.50;56.70;;;;;;5004636;28;20040;-92
2023/09/26 10:05:31;;;;;;;4.20;3.63;;;23.50;56.80;;;;;;4990465;28;20038;-90
2023/09/26 10:07:59;;;;;;;9.57;8.57;;;23.50;57.40;;;;;;4987116;28;20038;-86
2023/09/26 10:10:26;;;;;;;22.15;19.85;;;23.50;58.10;;;;;;5003016;28;20042;-84
2023/09/26 10:12:52;;;;;;;33.55;30.10;;;23.50;59.00;;;;;;4985981;28;20042;-82
2023/09/26 10:15:18;;;;;;;30.50;27.50;;;23.50;60.70;;;;;;4986181;28;20931;-86
2023/09/26 10:17:48;;;;;;;25.20;20.58;;;23.60;62.00;;;;;;4984482;28;20042;-85
2023/09/26 10:20:15;;;;;;;15.65;14.05;;;23.60;62.30;;;;;;4984455;28;20548;-85
2023/09/26 10:22:44;;;;;;;13.07;11.73;;;23.60;61.90;;;;;;4967465;28;20074;-84
2023/09/26 10:25:22;;;;;;;10.82;9.60;;;23.60;61.20;;;;;;4988971;28;20065;-86
2023/09/26 10:27:48;;;;;;;9.43;8.50;;;23.60;60.80;;;;;;4969807;28;20035;-85
2023/09/26 10:30:15;;;;;;;8.45;7.65;;;23.50;60.40;;;;;;4985873;28;20034;-84
2023/09/26 10:32:43;;;;;;;8.45;7.60;;;23.50;60.00;;;;;;5001119;28;20109;-86
2023/09/26 10:35:15;;;;;;;7.43;6.72;;;23.50;59.90;;;;;;4986531;28;20030;-86
2023/09/26 10:37:45;;;;;;;7.50;6.90;;;23.50;59.90;;;;;;4983903;28;20690;-86
2023/09/26 10:40:12;;;;;;;7.03;6.30;;;23.50;60.10;;;;;;4985191;28;20085;-86
2023/09/26 10:42:49;;;;;;;7.22;5.60;;;23.50;59.90;;;;;;4986114;28;20045;-86
2023/09/26 10:45:15;;;;;;;6.13;4.70;;;23.50;59.70;;;;;;4990224;28;20038;-84
2023/09/26 10:47:41;;;;;;;4.65;4.28;;;23.50;58.80;;;;;;4987566;28;20034;-85
2023/09/26 10:50:09;;;;;;;4.53;4.03;;;23.50;58.10;;;;;;4987408;28;20041;-84
2023/09/26 10:52:36;;;;;;;3.80;3.50;;;23.40;57.80;;;;;;4988806;28;20030;-87
2023/09/26 10:55:03;;;;;;;5.00;3.63;;;23.40;57.60;;;;;;5004364;28;20027;-86
2023/09/26 10:57:30;;;;;;;3.17;2.88;;;23.40;57.40;;;;;;4985826;28;20121;-86
2023/09/26 10:59:56;;;;;;;4.05;3.40;;;23.40;57.00;;;;;;4986256;28;20042;-85
2023/09/26 11:02:22;;;;;;;4.47;3.33;;;23.30;57.00;;;;;;4987065;28;20038;-86
2023/09/26 11:04:48;;;;;;;3.50;2.88;;;23.30;57.40;;;;;;4985694;28;20555;-87
2023/09/26 11:07:15;;;;;;;3.30;3.00;;;23.30;57.70;;;;;;4985912;28;20038;-85
2023/09/26 11:09:44;;;;;;;3.80;3.45;;;23.30;57.70;;;;;;5000700;28;20038;-84
2023/09/26 11:12:12;;;;;;;3.28;2.90;;;23.30;57.30;;;;;;4984869;28;20034;-83
2023/09/26 11:14:39;;;;;;;3.47;2.90;;;23.30;57.00;;;;;;5001408;28;20069;-84
2023/09/26 11:17:08;;;;;;;5.10;3.10;;;23.30;57.00;;;;;;4985517;28;20054;-87
2023/09/26 11:19:34;;;;;;;4.95;2.95;;;23.30;56.70;;;;;;4986723;28;20037;-85
2023/09/26 11:22:01;;;;;;;3.63;2.97;;;23.30;56.40;;;;;;5005525;28;20030;-86
2023/09/26 11:24:30;;;;;;;7.10;3.15;;;23.30;56.00;;;;;;4992165;28;20050;-85
2023/09/26 11:27:01;;;;;;;3.75;2.95;;;23.20;56.10;;;;;;5013796;28;20218;-81
2023/09/26 11:29:27;;;;;;;4.07;2.88;;;23.30;56.20;;;;;;4999669;28;20065;-85
2023/09/26 11:31:55;;;;;;;3.63;2.58;;;23.20;56.50;;;;;;5002959;28;20034;-83
2023/09/26 11:34:22;;;;;;;4.07;2.85;;;23.30;56.30;;;;;;5022331;28;20034;-85
2023/09/26 11:36:51;;;;;;;5.13;3.60;;;23.30;55.50;;;;;;4991555;28;20034;-84
2023/09/26 11:39:19;;;;;;;3.17;2.65;;;23.30;55.20;;;;;;4988392;28;20045;-84
2023/09/26 11:41:46;;;;;;;4.43;2.70;;;23.20;55.60;;;;;;4988050;28;20050;-85
2023/09/26 11:44:15;;;;;;;3.78;2.75;;;23.20;55.90;;;;;;4991965;28;20525;-87
2023/09/26 11:46:49;;;;;;;3.70;3.20;;;23.20;55.80;;;;;;5004492;28;20117;-85
2023/09/26 11:49:18;;;;;;;3.00;2.42;;;23.10;55.20;;;;;;4973798;28;20034;-86
2023/09/26 11:51:47;;;;;;;3.08;2.60;;;23.10;55.00;;;;;;4988964;28;20049;-85
2023/09/26 11:54:13;;;;;;;4.20;2.70;;;23.10;55.30;;;;;;4989336;28;20030;-82
2023/09/26 11:56:44;;;;;;;3.95;2.97;;;23.10;55.20;;;;;;4987263;28;20042;-81
2023/09/26 11:59:11;;;;;;;3.58;2.63;;;23.10;55.00;;;;;;4988228;28;20034;-88
2023/09/26 12:01:41;;;;;;;4.28;2.90;;;23.10;55.20;;;;;;4990518;28;20027;-82
2023/09/26 12:04:13;;;;;;;4.53;2.50;;;23.10;55.60;;;;;;4990100;28;20034;-86
2023/09/26 12:06:42;;;;;;;5.35;2.50;;;23.10;56.30;;;;;;4996576;28;20156;-92
2023/09/26 12:09:18;;;;;;;3.75;2.83;;;23.10;56.90;;;;;;4973442;28;20034;-87
2023/09/26 12:11:44;;;;;;;6.75;2.83;;;23.10;57.10;;;;;;4988602;28;20061;-86
2023/09/26 12:14:10;;;;;;;3.38;2.65;;;23.20;56.40;;;;;;5005410;28;20057;-89
2023/09/26 12:16:36;;;;;;;3.60;2.75;;;23.10;56.20;;;;;;4973505;28;20065;-84
2023/09/26 12:19:02;;;;;;;3.97;2.92;;;23.10;56.60;;;;;;4988002;28;20084;-89
2023/09/26 12:21:28;;;;;;;3.85;2.60;;;23.10;56.80;;;;;;4989823;28;20061;-84
2023/09/26 12:23:54;;;;;;;4.53;2.60;;;23.10;56.20;;;;;;4987199;28;20050;-86
2023/09/26 12:26:20;;;;;;;5.43;3.15;;;23.10;56.00;;;;;;4971223;28;20104;-85
2023/09/26 12:28:46;;;;;;;4.78;2.50;;;23.10;56.30;;;;;;4984195;28;20057;-89
2023/09/26 12:31:12;;;;;;;3.15;2.58;;;23.10;56.10;;;;;;5005037;28;20030;-88
2023/09/26 12:33:38;;;;;;;3.67;2.60;;;23.10;56.20;;;;;;5004992;28;20054;-90
2023/09/26 12:36:04;;;;;;;4.15;3.13;;;23.10;56.70;;;;;;4994637;28;20045;-86
2023/09/26 12:38:30;;;;;;;3.80;2.80;;;23.10;56.90;;;;;;4996370;28;20019;-87
2023/09/26 12:40:56;;;;;;;6.13;3.33;;;23.10;57.10;;;;;;5003545;28;20050;-85
2023/09/26 12:43:22;;;;;;;4.72;2.97;;;23.10;56.90;;;;;;5011385;28;20026;-87
2023/09/26 12:45:48;;;;;;;3.75;2.80;;;23.20;57.20;;;;;;4995977;28;20038;-85